createdAt,value
2018-02-23T00:01:18.195Z,99.90
2018-02-23T00:03:46.162Z,99.90
2018-02-23T00:06:13.848Z,99.90
2018-02-23T00:08:41.442Z,99.90
2018-02-23T00:11:10.619Z,99.90
2018-02-23T00:13:38.295Z,99.90
2018-02-23T00:16:06.652Z,99.90
2018-02-23T00:18:34.335Z,99.90
2018-02-23T00:21:01.920Z,99.90
2018-02-23T00:23:29.823Z,99.90
2018-02-23T00:25:57.433Z,99.90
2018-02-23T00:28:25.293Z,99.90
2018-02-23T00:30:52.875Z,99.90
2018-02-23T00:33:20.501Z,99.90
2018-02-23T00:35:48.125Z,99.90
2018-02-23T00:38:15.709Z,99.90
2018-02-23T00:40:44.103Z,99.90
2018-02-23T00:43:11.687Z,99.90
2018-02-23T00:45:39.316Z,99.90
2018-02-23T00:48:06.935Z,99.90
2018-02-23T00:50:34.516Z,99.90
2018-02-23T00:53:02.139Z,99.90
2018-02-23T00:55:29.771Z,99.90
2018-02-23T00:57:57.358Z,99.90
2018-02-23T01:00:24.993Z,99.90
2018-02-23T01:02:52.580Z,99.90
2018-02-23T01:05:20.244Z,99.90
2018-02-23T01:07:47.836Z,99.90
2018-02-23T01:10:15.475Z,99.90
2018-02-23T01:12:43.099Z,99.90
2018-02-23T01:15:10.672Z,99.90
2018-02-23T01:17:38.311Z,99.90
2018-02-23T01:20:05.891Z,99.90
2018-02-23T01:22:33.521Z,99.90
2018-02-23T01:25:01.111Z,99.90
2018-02-23T01:27:29.753Z,99.90
2018-02-23T01:29:57.367Z,99.90
2018-02-23T01:32:24.965Z,99.90
2018-02-23T01:34:52.587Z,99.90
2018-02-23T01:37:20.179Z,99.90
2018-02-23T01:39:47.843Z,99.90
2018-02-23T01:42:15.430Z,99.90
2018-02-23T01:44:43.023Z,99.90
2018-02-23T01:47:10.638Z,99.90
2018-02-23T01:49:38.264Z,99.90
2018-02-23T01:52:05.840Z,99.90
2018-02-23T01:54:33.460Z,99.90
2018-02-23T01:57:01.039Z,99.90
2018-02-23T01:59:29.415Z,99.90
2018-02-23T02:01:57.772Z,99.90
2018-02-23T02:04:25.408Z,99.90
2018-02-23T02:06:53.024Z,99.90
2018-02-23T02:09:21.403Z,99.90
2018-02-23T02:11:49.827Z,99.90
2018-02-23T02:14:17.440Z,99.90
2018-02-23T02:16:45.072Z,99.90
2018-02-23T02:19:12.714Z,99.90
2018-02-23T02:21:40.327Z,99.90
2018-02-23T02:24:07.936Z,99.90
2018-02-23T02:26:35.559Z,99.90
2018-02-23T02:29:03.178Z,99.90
2018-02-23T02:31:30.810Z,99.90
2018-02-23T02:33:58.387Z,99.90
2018-02-23T02:36:25.974Z,99.90
2018-02-23T02:38:53.765Z,99.90
2018-02-23T02:41:21.396Z,99.90
2018-02-23T02:43:49.015Z,99.90
2018-02-23T02:46:16.787Z,99.90
2018-02-23T02:48:44.507Z,99.90
2018-02-23T02:51:12.091Z,99.90
2018-02-23T02:53:39.676Z,99.90
2018-02-23T02:56:07.309Z,99.90
2018-02-23T02:58:34.903Z,99.90
2018-02-23T03:01:02.529Z,99.90
2018-02-23T03:03:30.108Z,99.90
2018-02-23T03:05:57.708Z,99.90
2018-02-23T03:08:25.340Z,99.90
2018-02-23T03:10:52.919Z,99.90
2018-02-23T03:13:20.549Z,99.90
2018-02-23T03:15:48.166Z,99.90
2018-02-23T03:18:15.750Z,99.90
2018-02-23T03:20:44.139Z,99.90
2018-02-23T03:23:12.489Z,99.90
2018-02-23T03:25:40.110Z,99.90
2018-02-23T03:28:07.731Z,99.90
2018-02-23T03:30:36.113Z,99.90
2018-02-23T03:33:04.490Z,99.90
2018-02-23T03:35:32.875Z,99.90
2018-02-23T03:38:01.288Z,99.90
2018-02-23T03:40:28.871Z,99.90
2018-02-23T03:42:56.583Z,99.90
2018-02-23T03:45:24.193Z,99.90
2018-02-23T03:47:51.816Z,99.90
2018-02-23T03:50:19.396Z,99.90
2018-02-23T03:52:47.012Z,99.90
2018-02-23T03:55:14.605Z,99.90
2018-02-23T03:57:42.242Z,99.90
2018-02-23T04:00:09.888Z,99.90
2018-02-23T04:02:37.549Z,99.90
2018-02-23T04:05:05.128Z,99.90
2018-02-23T04:07:33.527Z,99.90
2018-02-23T04:10:01.161Z,99.90
2018-02-23T04:12:29.072Z,99.90
2018-02-23T04:14:56.647Z,99.90
2018-02-23T04:17:24.271Z,99.90
2018-02-23T04:19:52.618Z,99.90
2018-02-23T04:22:20.247Z,99.90
2018-02-23T04:24:47.838Z,99.90
2018-02-23T04:27:15.449Z,99.90
2018-02-23T04:29:43.361Z,99.90
2018-02-23T04:32:10.968Z,99.90
2018-02-23T04:34:38.556Z,99.90
2018-02-23T04:37:06.178Z,99.90
2018-02-23T04:39:33.781Z,99.90
2018-02-23T04:42:01.365Z,99.90
2018-02-23T04:44:28.992Z,99.90
2018-02-23T04:46:56.655Z,99.90
2018-02-23T04:49:24.276Z,99.90
2018-02-23T04:51:51.893Z,99.90
2018-02-23T04:54:19.555Z,99.90
2018-02-23T04:56:47.329Z,99.90
2018-02-23T04:59:15.094Z,99.90
2018-02-23T05:01:42.727Z,99.90
2018-02-23T05:04:10.313Z,99.90
2018-02-23T05:06:37.928Z,99.90
2018-02-23T05:09:05.523Z,99.90
2018-02-23T05:11:33.231Z,99.90
2018-02-23T05:14:00.855Z,99.90
2018-02-23T05:16:28.516Z,99.90
2018-02-23T05:18:56.112Z,99.90
2018-02-23T05:21:23.732Z,99.90
2018-02-23T05:23:51.350Z,99.90
2018-02-23T05:26:18.936Z,99.90
2018-02-23T05:28:47.328Z,99.90
2018-02-23T05:31:14.909Z,99.90
2018-02-23T05:33:42.523Z,99.90
2018-02-23T05:36:11.772Z,99.90
2018-02-23T05:38:39.360Z,99.90
2018-02-23T05:41:06.986Z,99.90
2018-02-23T05:43:34.601Z,99.90
2018-02-23T05:46:02.190Z,99.90
2018-02-23T05:48:29.824Z,99.90
2018-02-23T05:50:57.432Z,99.90
2018-02-23T05:53:25.065Z,99.90
2018-02-23T05:55:52.647Z,99.90
2018-02-23T05:58:20.270Z,99.90
2018-02-23T06:00:47.858Z,99.90
2018-02-23T06:03:15.480Z,99.90
2018-02-23T06:05:43.872Z,99.90
2018-02-23T06:08:12.263Z,99.90
2018-02-23T06:10:39.884Z,99.90
2018-02-23T06:13:07.503Z,99.90
2018-02-23T06:15:40.808Z,99.90
2018-02-23T06:18:08.443Z,99.90
2018-02-23T06:20:36.788Z,99.90
2018-02-23T06:23:04.444Z,99.90
2018-02-23T06:25:32.110Z,99.90
2018-02-23T06:27:59.697Z,99.90
2018-02-23T06:30:27.283Z,99.90
2018-02-23T06:32:55.676Z,99.90
2018-02-23T06:35:23.256Z,99.90
2018-02-23T06:37:50.866Z,99.90
2018-02-23T06:40:19.221Z,99.90
2018-02-23T06:42:46.842Z,99.90
2018-02-23T06:45:14.455Z,99.90
2018-02-23T06:47:42.091Z,99.90
2018-02-23T06:50:09.872Z,99.90
2018-02-23T06:52:37.510Z,99.90
2018-02-23T06:55:05.134Z,99.90
2018-02-23T06:57:32.715Z,99.90
2018-02-23T07:00:00.383Z,99.90
2018-02-23T07:02:27.977Z,99.90
2018-02-23T07:04:55.569Z,99.90
2018-02-23T07:07:23.194Z,99.90
2018-02-23T07:09:50.886Z,99.90
2018-02-23T07:12:18.463Z,99.90
2018-02-23T07:14:46.098Z,99.90
2018-02-23T07:17:13.698Z,99.90
2018-02-23T07:19:41.571Z,99.90
2018-02-23T07:22:09.176Z,99.90
2018-02-23T07:24:36.799Z,99.90
2018-02-23T07:27:04.473Z,99.90
2018-02-23T07:29:32.101Z,99.90
2018-02-23T07:32:00.477Z,99.90
2018-02-23T07:34:28.832Z,99.90
2018-02-23T07:36:56.464Z,99.90
2018-02-23T07:39:25.562Z,99.90
2018-02-23T07:41:53.247Z,99.90
2018-02-23T07:44:20.817Z,99.90
2018-02-23T07:46:48.452Z,99.90
2018-02-23T07:49:16.024Z,99.90
2018-02-23T07:51:46.078Z,99.90
2018-02-23T07:54:13.746Z,99.90
2018-02-23T07:56:42.082Z,99.90
2018-02-23T07:59:09.674Z,99.90
2018-02-23T08:01:37.314Z,99.90
2018-02-23T08:04:04.890Z,99.90
2018-02-23T08:06:32.743Z,99.90
2018-02-23T08:09:00.324Z,99.90
2018-02-23T08:11:27.940Z,99.90
2018-02-23T08:13:55.681Z,99.90
2018-02-23T08:16:23.339Z,99.90
2018-02-23T08:18:50.922Z,99.90
2018-02-23T08:21:18.567Z,99.90
2018-02-23T08:23:46.156Z,99.90
2018-02-23T08:26:13.742Z,99.90
2018-02-23T08:28:42.009Z,99.90
2018-02-23T08:31:09.652Z,99.90
2018-02-23T08:33:37.271Z,99.90
2018-02-23T08:36:04.949Z,99.60
2018-02-23T08:38:32.530Z,99.90
2018-02-23T08:41:00.155Z,99.40
2018-02-23T08:43:27.756Z,98.70
2018-02-23T08:45:55.397Z,98.80
2018-02-23T08:48:23.142Z,99.20
2018-02-23T08:50:50.770Z,99.10
2018-02-23T08:53:18.395Z,98.40
2018-02-23T08:55:46.086Z,98.50
2018-02-23T08:58:13.662Z,97.60
2018-02-23T09:00:49.356Z,97.60
2018-02-23T09:03:17.891Z,97.00
2018-02-23T09:05:45.520Z,97.30
2018-02-23T09:08:13.147Z,97.20
2018-02-23T09:10:41.887Z,96.50
2018-02-23T09:13:09.483Z,96.50
2018-02-23T09:15:37.064Z,96.70
2018-02-23T09:18:05.481Z,95.80
2018-02-23T09:20:33.088Z,95.80
2018-02-23T09:23:00.727Z,94.70
2018-02-23T09:25:28.320Z,94.40
2018-02-23T09:27:56.046Z,94.10
2018-02-23T09:30:23.726Z,94.10
2018-02-23T09:32:58.080Z,93.40
2018-02-23T09:35:25.994Z,92.60
2018-02-23T09:37:53.664Z,93.20
2018-02-23T09:40:21.338Z,92.90
2018-02-23T09:42:50.379Z,92.10
2018-02-23T09:45:18.092Z,92.00
2018-02-23T09:47:45.683Z,91.70
2018-02-23T09:50:14.069Z,91.60
2018-02-23T09:52:42.447Z,92.00
2018-02-23T09:55:10.843Z,92.10
2018-02-23T09:57:38.475Z,92.00
2018-02-23T10:00:06.252Z,92.10
2018-02-23T10:02:33.894Z,90.90
2018-02-23T10:05:01.679Z,91.20
2018-02-23T10:07:32.082Z,91.20
2018-02-23T10:10:02.527Z,91.50
2018-02-23T10:12:30.102Z,90.10
2018-02-23T10:14:58.529Z,87.10
2018-02-23T10:17:26.146Z,87.10
2018-02-23T10:19:53.723Z,86.70
2018-02-23T10:22:21.298Z,85.90
2018-02-23T10:24:49.859Z,85.90
2018-02-23T10:27:17.493Z,84.70
2018-02-23T10:29:45.496Z,84.70
2018-02-23T10:32:13.107Z,82.70
2018-02-23T10:34:40.833Z,81.60
2018-02-23T10:37:08.483Z,79.60
2018-02-23T10:39:36.134Z,77.80
2018-02-23T10:42:03.783Z,76.60
2018-02-23T10:44:32.327Z,75.60
2018-02-23T10:46:59.970Z,73.90
2018-02-23T10:49:27.555Z,73.40
2018-02-23T10:51:55.270Z,71.70
2018-02-23T10:54:24.330Z,72.40
2018-02-23T10:56:52.291Z,70.70
2018-02-23T10:59:19.875Z,68.90
2018-02-23T11:01:49.994Z,69.30
2018-02-23T11:04:22.538Z,67.60
2018-02-23T11:06:50.119Z,67.60
2018-02-23T11:09:18.521Z,65.20
2018-02-23T11:11:46.158Z,65.10
2018-02-23T11:14:13.875Z,62.90
2018-02-23T11:16:41.610Z,63.70
2018-02-23T11:19:09.385Z,62.70
2018-02-23T11:21:37.018Z,63.60
2018-02-23T11:24:04.597Z,62.60
2018-02-23T11:26:32.251Z,62.60
2018-02-23T11:29:00.701Z,63.50
2018-02-23T11:31:28.519Z,61.80
2018-02-23T11:33:56.141Z,61.20
2018-02-23T11:36:23.765Z,61.40
2018-02-23T11:38:51.342Z,61.00
2018-02-23T11:41:18.982Z,62.00
2018-02-23T11:43:46.585Z,62.80
2018-02-23T11:46:14.374Z,62.20
2018-02-23T11:48:42.759Z,60.20
2018-02-23T11:51:11.155Z,60.20
2018-02-23T11:53:38.799Z,60.20
2018-02-23T11:56:06.610Z,61.50
2018-02-23T11:58:34.229Z,62.90
2018-02-23T12:01:01.891Z,61.50
2018-02-23T12:03:30.312Z,59.40
2018-02-23T12:05:58.062Z,59.40
2018-02-23T12:08:25.673Z,58.70
2018-02-23T12:10:53.811Z,58.00
2018-02-23T12:13:22.252Z,58.90
2018-02-23T12:15:50.682Z,57.70
2018-02-23T12:18:18.774Z,57.70
2018-02-23T12:20:46.535Z,58.10
2018-02-23T12:23:14.114Z,58.10
2018-02-23T12:25:41.935Z,58.10
2018-02-23T12:28:09.530Z,58.90
2018-02-23T12:30:37.986Z,58.30
2018-02-23T12:33:05.624Z,59.10
2018-02-23T12:35:33.339Z,60.80
2018-02-23T12:38:00.950Z,59.90
2018-02-23T12:40:28.567Z,59.70
2018-02-23T12:42:56.199Z,57.80
2018-02-23T12:45:23.807Z,57.90
2018-02-23T12:47:51.371Z,57.80
2018-02-23T12:50:19.014Z,57.10
2018-02-23T12:52:47.370Z,58.50
2018-02-23T12:55:14.992Z,58.50
2018-02-23T12:57:43.664Z,57.40
2018-02-23T13:00:11.358Z,56.70
2018-02-23T13:02:38.987Z,58.40
2018-02-23T13:05:06.586Z,58.70
2018-02-23T13:07:34.157Z,58.80
2018-02-23T13:10:05.775Z,59.00
2018-02-23T13:12:34.193Z,58.20
2018-02-23T13:15:07.592Z,58.20
2018-02-23T13:17:35.179Z,57.60
2018-02-23T13:20:02.887Z,56.90
2018-02-23T13:22:30.544Z,55.80
2018-02-23T13:24:58.222Z,55.90
2018-02-23T13:27:28.459Z,56.60
2018-02-23T13:29:56.202Z,55.20
2018-02-23T13:32:23.830Z,56.50
2018-02-23T13:34:51.469Z,55.80
2018-02-23T13:37:19.057Z,55.60
2018-02-23T13:39:52.359Z,55.40
2018-02-23T13:42:22.913Z,56.20
2018-02-23T13:44:50.509Z,57.70
2018-02-23T13:47:18.168Z,58.90
2018-02-23T13:49:46.276Z,59.60
2018-02-23T13:52:13.913Z,58.90
2018-02-23T13:54:41.497Z,59.90
2018-02-23T13:57:09.191Z,59.50
2018-02-23T13:59:37.134Z,59.80
2018-02-23T14:02:04.799Z,59.70
2018-02-23T14:04:33.264Z,58.90
2018-02-23T14:07:06.565Z,58.20
2018-02-23T14:09:34.385Z,58.20
2018-02-23T14:12:02.161Z,57.90
2018-02-23T14:14:29.905Z,59.00
2018-02-23T14:16:57.593Z,58.80
2018-02-23T14:19:25.513Z,59.10
2018-02-23T14:21:53.109Z,58.50
2018-02-23T14:24:20.677Z,58.80
2018-02-23T14:26:48.287Z,56.90
2018-02-23T14:29:16.826Z,55.80
2018-02-23T14:31:44.448Z,55.20
2018-02-23T14:34:13.087Z,55.90
2018-02-23T14:36:40.701Z,56.80
2018-02-23T14:39:08.363Z,55.30
2018-02-23T14:41:36.900Z,55.80
2018-02-23T14:44:05.375Z,55.70
2018-02-23T14:46:33.029Z,55.20
2018-02-23T14:49:12.531Z,54.70
2018-02-23T14:51:40.112Z,55.30
2018-02-23T14:54:07.749Z,57.20
2018-02-23T14:56:35.334Z,56.80
2018-02-23T14:59:03.066Z,56.10
2018-02-23T15:01:31.444Z,58.00
2018-02-23T15:03:59.833Z,58.90
2018-02-23T15:06:28.517Z,59.20
2018-02-23T15:08:56.966Z,58.00
2018-02-23T15:11:24.541Z,57.90
2018-02-23T15:13:52.163Z,58.20
2018-02-23T15:16:19.792Z,58.80
2018-02-23T15:18:47.451Z,58.30
2018-02-23T15:21:15.035Z,59.00
2018-02-23T15:23:42.629Z,58.40
2018-02-23T15:26:10.782Z,59.90
2018-02-23T15:28:38.346Z,59.30
2018-02-23T15:31:17.854Z,59.30
2018-02-23T15:33:45.468Z,60.00
2018-02-23T15:36:13.369Z,60.10
2018-02-23T15:38:41.977Z,60.30
2018-02-23T15:41:09.628Z,60.20
2018-02-23T15:43:37.262Z,59.90
2018-02-23T15:46:05.292Z,60.70
2018-02-23T15:51:39.631Z,60.80
2018-02-23T15:54:07.855Z,61.40
2018-02-23T15:56:35.542Z,61.20
2018-02-23T15:59:04.450Z,62.00
2018-02-23T16:01:32.035Z,62.80
2018-02-23T16:03:59.656Z,63.20
2018-02-23T16:06:27.274Z,63.50
2018-02-23T16:08:54.898Z,63.00
2018-02-23T16:11:22.494Z,63.10
2018-02-23T16:13:50.085Z,63.50
2018-02-23T16:16:18.598Z,63.70
2018-02-23T16:18:46.186Z,63.60
2018-02-23T16:21:13.815Z,63.80
2018-02-23T16:23:41.460Z,64.20
2018-02-23T16:26:09.073Z,63.50
2018-02-23T16:28:36.643Z,63.80
2018-02-23T16:31:04.298Z,64.80
2018-02-23T16:33:31.918Z,65.30
2018-02-23T16:35:59.700Z,64.70
2018-02-23T16:38:27.302Z,65.00
2018-02-23T16:40:55.716Z,65.60
2018-02-23T16:43:25.556Z,65.80
2018-02-23T16:45:54.463Z,66.40
2018-02-23T16:48:24.394Z,67.00
2018-02-23T16:50:52.049Z,67.40
2018-02-23T16:53:19.663Z,66.70
2018-02-23T16:55:47.333Z,67.00
2018-02-23T16:58:14.963Z,67.20
2018-02-23T17:00:42.609Z,67.50
2018-02-23T17:03:10.323Z,67.80
2018-02-23T17:05:37.974Z,68.30
2018-02-23T17:08:05.623Z,68.30
2018-02-23T17:10:33.228Z,68.70
2018-02-23T17:13:01.042Z,69.70
2018-02-23T17:15:29.589Z,70.30
2018-02-23T17:17:57.234Z,70.40
2018-02-23T17:20:25.099Z,70.50
2018-02-23T17:22:52.714Z,70.60
2018-02-23T17:25:20.510Z,70.90
2018-02-23T17:27:48.969Z,72.10
2018-02-23T17:30:17.033Z,72.00
2018-02-23T17:32:44.702Z,72.50
2018-02-23T17:35:12.325Z,72.60
2018-02-23T17:37:39.989Z,72.90
2018-02-23T17:40:07.599Z,73.00
2018-02-23T17:42:35.285Z,73.10
2018-02-23T17:45:02.888Z,73.00
2018-02-23T17:47:30.502Z,73.30
2018-02-23T17:49:58.300Z,73.50
2018-02-23T17:52:25.991Z,74.00
2018-02-23T17:54:54.470Z,75.50
2018-02-23T17:57:22.165Z,76.10
2018-02-23T17:59:50.589Z,75.80
2018-02-23T18:02:18.476Z,76.30
2018-02-23T18:04:46.525Z,76.20
2018-02-23T18:07:14.526Z,76.30
2018-02-23T18:09:42.277Z,76.20
2018-02-23T18:12:09.960Z,75.80
2018-02-23T18:14:37.556Z,76.20
2018-02-23T18:17:05.233Z,76.40
2018-02-23T18:19:32.839Z,76.20
2018-02-23T18:22:00.488Z,76.40
2018-02-23T18:24:28.129Z,76.60
2018-02-23T18:26:55.847Z,76.90
2018-02-23T18:29:24.222Z,77.80
2018-02-23T18:31:52.043Z,77.10
2018-02-23T18:34:19.668Z,76.90
2018-02-23T18:36:47.481Z,77.70
2018-02-23T18:39:15.204Z,78.30
2018-02-23T18:41:43.057Z,77.80
2018-02-23T18:44:11.679Z,78.00
2018-02-23T18:46:39.606Z,77.90
2018-02-23T18:49:07.317Z,78.20
2018-02-23T18:51:35.170Z,78.30
2018-02-23T18:54:02.758Z,78.30
2018-02-23T18:56:30.393Z,78.20
2018-02-23T18:58:57.989Z,78.30
2018-02-23T19:01:25.700Z,78.70
2018-02-23T19:03:53.321Z,78.80
2018-02-23T19:06:21.031Z,78.80
2018-02-23T19:08:48.692Z,78.80
2018-02-23T19:11:16.289Z,79.00
2018-02-23T19:13:43.917Z,79.20
2018-02-23T19:16:11.545Z,79.50
2018-02-23T19:18:39.251Z,79.60
2018-02-23T19:21:06.881Z,79.40
2018-02-23T19:23:34.740Z,79.70
2018-02-23T19:26:02.337Z,79.60
2018-02-23T19:28:29.961Z,80.00
2018-02-23T19:30:58.768Z,80.20
2018-02-23T19:33:26.405Z,80.50
2018-02-23T19:35:54.011Z,80.60
2018-02-23T19:38:21.616Z,80.70
2018-02-23T19:40:49.256Z,80.90
2018-02-23T19:43:16.839Z,80.00
2018-02-23T19:48:17.397Z,79.50
2018-02-23T19:50:45.099Z,79.40
2018-02-23T19:53:13.447Z,79.70
2018-02-23T19:55:41.074Z,79.70
2018-02-23T19:58:08.670Z,79.80
2018-02-23T20:00:36.311Z,79.60
2018-02-23T20:03:03.991Z,79.70
2018-02-23T20:05:31.590Z,79.40
2018-02-23T20:07:59.408Z,79.40
2018-02-23T20:10:27.021Z,79.20
2018-02-23T20:12:54.792Z,78.80
2018-02-23T20:15:22.381Z,79.20
2018-02-23T20:17:50.006Z,79.20
2018-02-23T20:20:17.719Z,78.50
2018-02-23T20:22:45.374Z,78.70
2018-02-23T20:25:13.009Z,79.10
2018-02-23T20:27:40.634Z,79.10
2018-02-23T20:30:08.227Z,79.10
2018-02-23T20:32:35.881Z,79.70
2018-02-23T20:35:03.485Z,79.00
2018-02-23T20:37:31.109Z,78.90
2018-02-23T20:39:58.764Z,78.90
2018-02-23T20:42:26.399Z,79.00
2018-02-23T20:44:54.128Z,79.20
2018-02-23T20:47:21.720Z,79.10
2018-02-23T20:49:49.404Z,79.10
2018-02-23T20:52:16.995Z,79.40
2018-02-23T20:54:44.678Z,79.60
2018-02-23T20:57:12.264Z,80.30
2018-02-23T20:59:39.916Z,80.50
2018-02-23T21:02:07.524Z,80.50
2018-02-23T21:04:35.936Z,80.40
2018-02-23T21:07:03.520Z,80.40
2018-02-23T21:09:31.140Z,80.10
2018-02-23T21:11:58.936Z,80.30
2018-02-23T21:14:26.562Z,80.70
2018-02-23T21:16:54.230Z,80.80
2018-02-23T21:19:21.822Z,80.70
2018-02-23T21:21:49.459Z,80.90
2018-02-23T21:24:17.063Z,80.80
2018-02-23T21:26:44.785Z,80.80
2018-02-23T21:29:12.430Z,80.90
2018-02-23T21:31:40.090Z,80.90
2018-02-23T21:34:08.465Z,81.00
2018-02-23T21:36:36.926Z,80.90
2018-02-23T21:39:05.303Z,81.40
2018-02-23T21:41:45.330Z,81.20
2018-02-23T21:44:12.940Z,81.20
2018-02-23T21:46:40.600Z,80.90
2018-02-23T21:49:08.234Z,81.20
2018-02-23T21:51:35.851Z,80.70
2018-02-23T21:54:03.487Z,80.80
2018-02-23T21:56:31.843Z,80.20
2018-02-23T21:58:59.496Z,80.30
2018-02-23T22:01:27.120Z,80.40
2018-02-23T22:03:54.734Z,80.30
2018-02-23T22:06:22.327Z,80.00
2018-02-23T22:08:49.951Z,80.00
2018-02-23T22:11:17.566Z,79.80
2018-02-23T22:13:45.222Z,79.70
2018-02-23T22:16:12.840Z,79.40
2018-02-23T22:18:40.631Z,79.40
2018-02-23T22:21:08.210Z,79.40
2018-02-23T22:23:36.047Z,79.60
2018-02-23T22:26:04.396Z,80.00
2018-02-23T22:28:32.030Z,79.90
2018-02-23T22:30:59.652Z,80.00
2018-02-23T22:33:28.004Z,79.40
2018-02-23T22:35:55.940Z,79.20
2018-02-23T22:38:23.626Z,79.10
2018-02-23T22:40:52.748Z,79.00
2018-02-23T22:43:20.444Z,79.00
2018-02-23T22:45:48.073Z,79.00
2018-02-23T22:48:15.680Z,79.40
2018-02-23T22:50:43.278Z,79.00
2018-02-23T22:53:10.937Z,79.30
2018-02-23T22:55:38.588Z,79.50
2018-02-23T22:58:06.179Z,79.50
2018-02-23T23:00:33.797Z,79.10
2018-02-23T23:03:01.412Z,79.10
2018-02-23T23:05:29.000Z,78.70
2018-02-23T23:07:56.637Z,78.70
2018-02-23T23:10:24.837Z,78.60
2018-02-23T23:12:52.479Z,78.60
2018-02-23T23:15:20.664Z,78.50
2018-02-23T23:17:49.082Z,78.60
2018-02-23T23:20:16.665Z,78.60
2018-02-23T23:22:44.332Z,78.50
2018-02-23T23:25:13.526Z,78.40
2018-02-23T23:27:41.298Z,78.20
2018-02-23T23:30:08.921Z,77.90
2018-02-23T23:32:36.567Z,78.40
2018-02-23T23:35:04.977Z,78.10
2018-02-23T23:37:34.104Z,78.10
2018-02-23T23:40:01.769Z,78.40
2018-02-23T23:42:30.620Z,78.30
2018-02-23T23:45:00.110Z,78.30
2018-02-23T23:47:28.450Z,78.40
2018-02-23T23:49:56.056Z,78.40
2018-02-23T23:52:23.712Z,78.70
2018-02-23T23:54:51.304Z,79.00
2018-02-23T23:57:20.909Z,79.10
2018-02-23T23:59:48.527Z,79.40
